Time;durP1;ratioP1;P1;durP2;ratioP2;P2;SDS_P1;SDS_P2;PMS_P1;PMS_P2;Temp;Humidity;BMP_temperature;BMP_pressure;BME280_temperature;BME280_humidity;BME280_pressure;Samples;Min_cycle;Max_cycle;Signal;HPM_P1;HPM_P2
2022/08/15 00:01:44;;;;;;;4.80;4.40;;;26.90;65.20;;;;;;4991539;28;20102;-87
2022/08/15 00:08:29;;;;;;;4.88;4.38;;;26.90;65.60;;;;;;5008603;28;20022;-89
2022/08/15 00:11:07;;;;;;;4.75;4.35;;;26.90;65.50;;;;;;4996871;28;20025;-89
2022/08/15 00:20:20;;;;;;;5.13;4.63;;;26.80;65.70;;;;;;4963841;28;20412;-87
2022/08/15 00:22:53;;;;;;;6.53;5.10;;;26.70;65.70;;;;;;5015027;28;20073;-88
2022/08/15 00:25:22;;;;;;;5.53;4.68;;;26.70;65.60;;;;;;4978157;28;20025;-88
2022/08/15 00:27:49;;;;;;;4.93;4.53;;;26.70;65.60;;;;;;4988625;28;20023;-88
2022/08/15 00:44:54;;;;;;;5.53;5.03;;;26.60;65.60;;;;;;4907868;28;20048;-88
2022/08/15 00:47:29;;;;;;;5.10;4.70;;;26.50;65.70;;;;;;5006051;28;20022;-89
2022/08/15 00:53:23;;;;;;;4.90;4.50;;;26.60;65.80;;;;;;5007469;28;20049;-90
2022/08/15 00:55:58;;;;;;;8.20;4.43;;;26.50;65.70;;;;;;4986046;28;20014;-89
2022/08/15 00:58:29;;;;;;;6.57;4.93;;;26.50;65.90;;;;;;4985303;28;20050;-89
2022/08/15 01:00:54;;;;;;;;;;;26.50;65.90;;;;;;4986654;28;20018;-89
2022/08/15 01:03:37;;;;;;;5.68;5.18;;;26.40;65.90;;;;;;5003403;28;19948;-89
2022/08/15 01:06:08;;;;;;;5.40;4.90;;;26.40;66.10;;;;;;4986335;28;20022;-89
2022/08/15 01:08:43;;;;;;;5.32;4.82;;;26.40;66.20;;;;;;4969890;28;20022;-88
2022/08/15 01:11:27;;;;;;;5.13;4.63;;;26.40;66.30;;;;;;4968457;28;20038;-88
2022/08/15 01:13:59;;;;;;;5.85;5.03;;;26.40;66.30;;;;;;4985841;28;20031;-88
2022/08/15 01:16:30;;;;;;;5.75;5.25;;;26.40;66.30;;;;;;4985858;28;20057;-88
2022/08/15 01:19:00;;;;;;;5.78;5.28;;;26.40;66.60;;;;;;4986207;28;20533;-90
2022/08/15 01:21:38;;;;;;;5.70;5.18;;;26.30;66.60;;;;;;4985858;28;20073;-88
2022/08/15 01:24:40;;;;;;;5.30;4.85;;;26.30;66.70;;;;;;4985631;28;20432;-88
2022/08/15 01:33:58;;;;;;;5.75;5.25;;;26.30;66.90;;;;;;4976774;28;20090;-87
2022/08/15 01:36:31;;;;;;;5.72;5.22;;;26.30;66.90;;;;;;4984905;28;20054;-89
2022/08/15 01:39:14;;;;;;;5.68;5.07;;;26.30;67.10;;;;;;4985150;28;20096;-88
2022/08/15 01:42:18;;;;;;;6.10;5.50;;;26.20;67.30;;;;;;4984537;28;20031;-91
2022/08/15 01:45:11;;;;;;;5.38;4.88;;;26.20;67.40;;;;;;5001153;28;20463;-89
2022/08/15 01:48:12;;;;;;;5.70;5.20;;;26.20;67.80;;;;;;5002014;28;20029;-87
2022/08/15 01:51:00;;;;;;;5.82;5.32;;;26.20;67.80;;;;;;4973070;28;20038;-88
2022/08/15 01:53:37;;;;;;;5.30;4.80;;;26.20;67.70;;;;;;4969595;28;20022;-90
2022/08/15 01:56:40;;;;;;;5.57;5.07;;;26.20;67.80;;;;;;5002256;28;20019;-88
2022/08/15 01:59:16;;;;;;;6.03;5.43;;;26.20;67.80;;;;;;4983148;28;20050;-88
2022/08/15 02:02:05;;;;;;;6.32;5.72;;;26.10;67.80;;;;;;4967292;28;20380;-88
2022/08/15 02:04:42;;;;;;;6.93;5.47;;;26.10;68.00;;;;;;4978430;28;20015;-89
2022/08/15 02:07:19;;;;;;;5.47;5.00;;;26.10;68.30;;;;;;4983678;28;20494;-88
2022/08/15 02:09:53;;;;;;;5.85;5.35;;;26.10;68.60;;;;;;4967235;28;20022;-87
2022/08/15 02:12:27;;;;;;;5.97;5.43;;;26.10;69.20;;;;;;5000168;28;20033;-89
2022/08/15 02:14:57;;;;;;;5.57;5.07;;;26.00;69.60;;;;;;4983322;28;20029;-88
2022/08/15 02:17:25;;;;;;;5.75;5.25;;;26.00;69.70;;;;;;4982769;28;20030;-89
2022/08/15 02:19:54;;;;;;;5.75;5.30;;;25.90;69.80;;;;;;4982931;28;20045;-88
2022/08/15 02:22:24;;;;;;;7.78;5.18;;;25.90;69.90;;;;;;4981177;28;20483;-89
2022/08/15 02:24:50;;;;;;;5.60;5.10;;;25.90;69.80;;;;;;4967399;28;20455;-88
2022/08/15 02:27:43;;;;;;;6.10;5.50;;;25.90;69.90;;;;;;4983151;28;20018;-90
2022/08/15 02:30:23;;;;;;;6.28;5.78;;;25.80;70.00;;;;;;4983199;28;20026;-88
2022/08/15 02:32:52;;;;;;;;;;;25.80;70.20;;;;;;4983435;28;20034;-88
2022/08/15 02:35:24;;;;;;;6.25;5.65;;;25.80;70.30;;;;;;5000655;28;19901;-89
2022/08/15 02:38:01;;;;;;;6.38;5.78;;;25.70;70.30;;;;;;4983529;28;20056;-89
2022/08/15 02:43:29;;;;;;;6.72;6.13;;;25.70;70.50;;;;;;4965756;28;20048;-91
2022/08/15 02:46:10;;;;;;;6.30;5.75;;;25.60;70.90;;;;;;4967144;28;20098;-89
2022/08/15 02:48:57;;;;;;;;;;;;;;;;;;;;;
2022/08/15 02:51:38;;;;;;;6.13;5.63;;;25.50;71.70;;;;;;5001632;28;20078;-88
2022/08/15 02:54:16;;;;;;;6.53;5.93;;;25.50;71.50;;;;;;5002457;28;20101;-87
2022/08/15 02:56:49;;;;;;;6.25;5.65;;;25.50;71.60;;;;;;5015291;28;20045;-89
2022/08/15 02:59:21;;;;;;;6.32;5.72;;;25.40;72.00;;;;;;5002474;28;20042;-87
2022/08/15 03:02:06;;;;;;;6.32;5.72;;;25.40;72.50;;;;;;5002487;28;20100;-87
2022/08/15 03:04:35;;;;;;;6.10;5.60;;;25.30;72.60;;;;;;5001828;28;20019;-89
2022/08/15 03:07:05;;;;;;;6.65;6.07;;;25.30;72.60;;;;;;5000878;28;20014;-87
2022/08/15 03:09:36;;;;;;;6.70;6.00;;;25.20;72.70;;;;;;4990109;28;20082;-90
2022/08/15 03:12:04;;;;;;;6.82;6.22;;;25.20;72.60;;;;;;4966402;28;20038;-88
2022/08/15 03:14:37;;;;;;;7.15;6.45;;;25.20;72.70;;;;;;4983447;28;20019;-89
2022/08/15 03:17:09;;;;;;;7.18;6.53;;;25.10;72.90;;;;;;4967835;28;20035;-89
2022/08/15 03:19:43;;;;;;;7.05;6.40;;;25.10;73.10;;;;;;4982166;28;20029;-89
2022/08/15 03:22:11;;;;;;;7.32;6.63;;;25.00;73.00;;;;;;4967127;28;20550;-89
2022/08/15 03:24:42;;;;;;;7.22;6.45;;;25.00;73.00;;;;;;4982365;28;20026;-89
2022/08/15 03:27:11;;;;;;;7.25;6.65;;;24.90;73.00;;;;;;4967336;28;20024;-88
2022/08/15 03:29:55;;;;;;;7.53;6.68;;;24.90;73.30;;;;;;4982365;28;20101;-89
2022/08/15 03:32:26;;;;;;;7.57;6.97;;;24.80;73.50;;;;;;4967942;28;20117;-88
2022/08/15 03:38:21;;;;;;;7.70;7.00;;;24.80;73.40;;;;;;4939942;29;20031;-88
2022/08/15 03:40:53;;;;;;;7.80;6.60;;;24.70;74.00;;;;;;4939894;29;20035;-88
2022/08/15 03:43:27;;;;;;;7.93;7.22;;;24.70;74.00;;;;;;4923946;29;20058;-88
2022/08/15 03:46:02;;;;;;;8.30;7.50;;;24.60;75.00;;;;;;4939817;29;20024;-88
2022/08/15 03:48:35;;;;;;;7.60;7.00;;;24.50;74.80;;;;;;4924291;29;20060;-89
2022/08/15 03:58:07;;;;;;;8.00;7.30;;;24.40;75.30;;;;;;4898254;29;20063;-89
2022/08/15 04:00:58;;;;;;;9.32;8.45;;;24.30;75.20;;;;;;4923272;29;20125;-87
2022/08/15 04:03:37;;;;;;;8.70;7.78;;;24.30;75.50;;;;;;4924910;29;20023;-88
2022/08/15 04:06:10;;;;;;;8.23;7.45;;;24.30;75.60;;;;;;4946698;28;20031;-90
2022/08/15 04:08:45;;;;;;;8.40;7.70;;;24.20;75.80;;;;;;4964273;28;20420;-88
2022/08/15 04:11:27;;;;;;;8.52;7.50;;;24.20;75.90;;;;;;4962298;28;20456;-88
2022/08/15 04:13:57;;;;;;;8.55;7.72;;;24.10;76.40;;;;;;4963819;28;20023;-86
2022/08/15 04:16:30;;;;;;;10.27;9.27;;;24.10;76.60;;;;;;4981226;28;20384;-89
2022/08/15 04:19:13;;;;;;;10.63;9.60;;;24.10;76.80;;;;;;4963848;28;20023;-88
2022/08/15 04:21:38;;;;;;;10.02;9.02;;;24.10;77.40;;;;;;4950127;28;20037;-89
2022/08/15 04:24:12;;;;;;;10.70;9.25;;;24.00;76.80;;;;;;4952566;28;20042;-88
2022/08/15 04:26:48;;;;;;;9.43;8.55;;;24.00;76.70;;;;;;4952795;28;20027;-88
2022/08/15 04:29:41;;;;;;;8.85;8.05;;;24.00;76.60;;;;;;4953374;28;20038;-89
2022/08/15 04:32:25;;;;;;;9.70;8.80;;;24.00;76.80;;;;;;4982979;28;20436;-88
2022/08/15 04:35:08;;;;;;;;;;;;;;;;;;;;;
2022/08/15 04:37:50;;;;;;;10.77;9.77;;;24.00;77.20;;;;;;4983288;28;20114;-90
2022/08/15 04:40:24;;;;;;;11.73;10.52;;;24.00;77.30;;;;;;4965421;28;20049;-89
2022/08/15 04:43:02;;;;;;;10.73;9.63;;;23.90;77.40;;;;;;4966501;28;20018;-89
2022/08/15 04:45:30;;;;;;;12.00;10.48;;;23.90;77.50;;;;;;4966675;28;20054;-88
2022/08/15 04:51:41;;;;;;;12.48;11.18;;;23.90;77.90;;;;;;4984536;28;20033;-89
2022/08/15 04:54:09;;;;;;;12.68;11.48;;;23.90;77.90;;;;;;4950222;28;20102;-87
2022/08/15 04:56:38;;;;;;;12.25;11.15;;;23.90;77.90;;;;;;4966599;28;20011;-89
2022/08/15 04:59:10;;;;;;;12.85;11.65;;;23.90;77.90;;;;;;4949991;28;20557;-88
2022/08/15 05:01:39;;;;;;;12.93;11.73;;;23.90;78.00;;;;;;4981920;28;20416;-87
2022/08/15 05:04:08;;;;;;;13.65;12.38;;;23.90;78.00;;;;;;4982842;28;20038;-87
2022/08/15 05:06:42;;;;;;;13.30;12.10;;;23.90;78.10;;;;;;4969700;28;20097;-86
2022/08/15 05:09:17;;;;;;;13.55;12.25;;;23.90;78.10;;;;;;4978330;28;20017;-88
2022/08/15 05:11:47;;;;;;;13.20;11.70;;;23.90;78.10;;;;;;5001664;28;20007;-88
2022/08/15 05:14:16;;;;;;;12.20;11.15;;;23.90;78.00;;;;;;4984196;28;20019;-88
2022/08/15 05:23:43;;;;;;;;;;;;;;;;;;;;;
2022/08/15 05:26:31;;;;;;;10.80;9.82;;;23.90;77.40;;;;;;4969304;28;20113;-90
2022/08/15 05:29:16;;;;;;;;;;;;;;;;;;;;;
2022/08/15 05:35:26;;;;;;;9.27;7.55;;;24.00;76.60;;;;;;4932614;28;20031;-89
2022/08/15 05:37:56;;;;;;;8.35;7.25;;;23.90;76.60;;;;;;4966457;28;20023;-89
2022/08/15 05:40:37;;;;;;;7.38;6.20;;;23.90;76.30;;;;;;4951603;28;20035;-90
2022/08/15 05:43:29;;;;;;;6.30;5.70;;;23.80;75.80;;;;;;4984390;28;20026;-90
2022/08/15 05:46:46;;;;;;;5.43;4.93;;;23.80;75.80;;;;;;4965965;28;20019;-89
2022/08/15 05:53:23;;;;;;;5.72;4.93;;;23.90;75.40;;;;;;4952756;29;20035;-90
2022/08/15 05:56:22;;;;;;;4.80;4.40;;;23.90;75.00;;;;;;4962424;29;20035;-90
2022/08/15 05:59:02;;;;;;;4.65;4.20;;;23.90;74.90;;;;;;4946624;29;20027;-89
2022/08/15 06:02:33;;;;;;;4.75;4.07;;;23.90;74.90;;;;;;4990981;28;20022;-90
2022/08/15 06:05:31;;;;;;;4.60;3.60;;;23.90;74.70;;;;;;4989367;28;20029;-92
2022/08/15 06:08:00;;;;;;;5.47;4.13;;;23.90;74.40;;;;;;4984916;28;20022;-89
2022/08/15 06:10:54;;;;;;;4.27;3.87;;;23.90;74.40;;;;;;4982065;28;20046;-90
2022/08/15 06:14:19;;;;;;;6.28;3.38;;;23.90;74.40;;;;;;4984300;28;20031;-89
2022/08/15 06:24:36;;;;;;;4.78;3.03;;;24.00;73.60;;;;;;4884680;29;20081;-89
2022/08/15 06:31:35;;;;;;;;;;;;;;;;;;;;;
2022/08/15 06:34:44;;;;;;;8.93;2.90;;;24.00;73.00;;;;;;4909169;29;20107;-91
2022/08/15 06:37:58;;;;;;;3.08;2.60;;;24.00;73.50;;;;;;4906158;29;20116;-90
2022/08/15 06:41:21;;;;;;;;;;;;;;;;;;;;;
2022/08/15 06:44:21;;;;;;;3.58;2.67;;;24.00;73.20;;;;;;4887439;29;20124;-91
2022/08/15 06:47:20;;;;;;;;;;;;;;;;;;;;;
2022/08/15 06:50:02;;;;;;;4.47;2.58;;;24.10;72.70;;;;;;4957548;29;20018;-89
2022/08/15 06:52:47;;;;;;;3.72;2.70;;;24.20;72.70;;;;;;4959293;28;20060;-89
2022/08/15 06:56:10;;;;;;;2.65;2.28;;;24.30;72.60;;;;;;4975691;28;20439;-88
2022/08/15 06:59:06;;;;;;;;;;;;;;;;;;;;;
2022/08/15 07:02:27;;;;;;;4.47;3.60;;;24.40;73.40;;;;;;4979735;28;20034;-91
2022/08/15 07:05:27;;;;;;;6.55;3.22;;;24.50;73.50;;;;;;4994379;28;20026;-89
2022/08/15 07:08:16;;;;;;;4.05;2.75;;;24.60;74.10;;;;;;4995806;28;20022;-88
2022/08/15 07:11:14;;;;;;;4.03;3.08;;;24.60;74.30;;;;;;4992781;28;20034;-89
2022/08/15 07:14:39;;;;;;;3.47;2.80;;;24.70;75.50;;;;;;4955972;28;20405;-90
2022/08/15 07:17:31;;;;;;;5.85;3.08;;;24.70;76.50;;;;;;4949482;28;20038;-88
2022/08/15 07:20:19;;;;;;;4.05;2.70;;;24.70;76.20;;;;;;4960368;28;20019;-90
2022/08/15 07:23:01;;;;;;;4.88;3.10;;;24.70;74.80;;;;;;4953240;28;20066;-89
2022/08/15 07:25:43;;;;;;;4.55;3.00;;;24.60;75.60;;;;;;5001289;28;20025;-90
2022/08/15 07:28:28;;;;;;;3.80;2.65;;;24.60;76.40;;;;;;5001463;28;20015;-88
2022/08/15 07:31:16;;;;;;;4.00;3.10;;;24.60;76.50;;;;;;5001219;28;20022;-88
2022/08/15 07:33:56;;;;;;;3.75;2.90;;;24.50;77.50;;;;;;4998677;28;20022;-89
2022/08/15 07:36:35;;;;;;;4.05;2.58;;;24.50;76.70;;;;;;4987278;28;20503;-90
2022/08/15 07:39:32;;;;;;;4.47;3.08;;;24.60;75.70;;;;;;4978645;28;20072;-90
2022/08/15 07:42:22;;;;;;;2.70;2.42;;;24.70;75.20;;;;;;4974707;28;20035;-90
2022/08/15 07:45:11;;;;;;;;;;;;;;;;;;;;;
2022/08/15 07:48:18;;;;;;;4.25;2.70;;;24.80;75.30;;;;;;4975808;28;20130;-91
2022/08/15 07:51:31;;;;;;;7.00;3.30;;;24.70;75.70;;;;;;4963782;28;20041;-90
2022/08/15 07:54:04;;;;;;;7.10;2.90;;;24.70;76.00;;;;;;4960171;28;20042;-91
2022/08/15 07:56:58;;;;;;;;;;;;;;;;;;;;;
2022/08/15 08:03:27;;;;;;;4.78;3.40;;;24.70;74.80;;;;;;4971858;28;20031;-90
2022/08/15 08:06:05;;;;;;;6.20;3.30;;;24.70;75.20;;;;;;4971152;28;20031;-92
2022/08/15 08:09:32;;;;;;;4.95;2.95;;;24.80;74.50;;;;;;4981943;28;20029;-90
2022/08/15 08:12:47;;;;;;;3.88;3.20;;;24.90;74.60;;;;;;4941215;28;20023;-90
2022/08/15 08:15:27;;;;;;;4.00;3.22;;;24.90;74.30;;;;;;4987083;28;20038;-91
2022/08/15 08:18:37;;;;;;;4.43;2.97;;;25.00;73.70;;;;;;4983887;28;20018;-91
2022/08/15 08:21:49;;;;;;;5.13;3.03;;;25.00;73.60;;;;;;4983835;28;20073;-92
2022/08/15 08:24:58;;;;;;;3.20;2.90;;;25.10;73.50;;;;;;4980286;28;20102;-92
2022/08/15 08:28:00;;;;;;;4.35;3.10;;;25.20;72.70;;;;;;4992044;28;20026;-89
2022/08/15 08:30:41;;;;;;;4.88;2.55;;;25.20;73.10;;;;;;4994336;28;20053;-91
2022/08/15 08:33:27;;;;;;;5.28;2.85;;;25.30;73.40;;;;;;4983010;28;20030;-89
2022/08/15 08:36:19;;;;;;;;;;;;;;;;;;;;;
2022/08/15 08:39:31;;;;;;;5.55;3.38;;;25.30;73.50;;;;;;4988579;28;20102;-92
2022/08/15 08:42:22;;;;;;;3.60;3.30;;;25.30;74.00;;;;;;4970238;28;20094;-88
2022/08/15 08:45:24;;;;;;;5.50;3.70;;;25.30;74.50;;;;;;4970102;28;20027;-88
2022/08/15 08:48:18;;;;;;;6.50;3.83;;;25.30;74.50;;;;;;4981578;28;20041;-88
2022/08/15 08:51:34;;;;;;;;;;;;;;;;;;;;;
2022/08/15 08:54:43;;;;;;;4.70;3.95;;;25.30;73.50;;;;;;4999915;28;20539;-90
2022/08/15 08:57:41;;;;;;;4.75;3.97;;;25.40;73.30;;;;;;4980929;28;20042;-91
2022/08/15 09:00:38;;;;;;;;;;;;;;;;;;;;;
2022/08/15 09:03:42;;;;;;;;;;;;;;;;;;;;;
2022/08/15 09:06:58;;;;;;;;;;;;;;;;;;;;;
2022/08/15 09:10:11;;;;;;;;;;;;;;;;;;;;;
2022/08/15 09:15:59;;;;;;;;;;;;;;;;;;;;;
2022/08/15 09:25:08;;;;;;;4.28;3.65;;;25.90;73.30;;;;;;4999567;28;20030;-90
2022/08/15 09:28:12;;;;;;;3.88;3.20;;;26.00;72.70;;;;;;4989675;28;20395;-90
2022/08/15 09:30:48;;;;;;;3.42;3.13;;;26.00;72.30;;;;;;5004208;28;20486;-90
2022/08/15 09:33:32;;;;;;;3.53;3.13;;;26.10;72.20;;;;;;4996389;28;20026;-91
2022/08/15 09:36:58;;;;;;;3.70;3.10;;;26.20;71.80;;;;;;5019939;28;20022;-91
2022/08/15 09:40:12;;;;;;;;;;;;;;;;;;;;;
2022/08/15 09:43:19;;;;;;;3.50;3.20;;;26.10;71.90;;;;;;5038874;28;20050;-89
2022/08/15 09:46:39;;;;;;;4.18;3.55;;;26.20;72.10;;;;;;5018941;28;20026;-90
2022/08/15 09:49:14;;;;;;;4.82;3.50;;;26.20;72.80;;;;;;4994240;28;20086;-91
2022/08/15 09:52:14;;;;;;;4.57;3.45;;;26.20;72.40;;;;;;5008400;28;20064;-90
2022/08/15 09:58:20;;;;;;;5.53;4.10;;;26.40;72.70;;;;;;4984140;28;19988;-91
2022/08/15 10:01:12;;;;;;;5.30;3.92;;;26.40;71.90;;;;;;4961278;28;20137;-92
2022/08/15 10:03:55;;;;;;;5.15;3.63;;;26.30;72.60;;;;;;4982089;28;20474;-90
2022/08/15 10:06:52;;;;;;;4.93;4.20;;;26.30;73.30;;;;;;4980755;28;20018;-90
2022/08/15 10:10:00;;;;;;;5.25;3.58;;;26.30;73.10;;;;;;4991061;28;20026;-90
2022/08/15 10:12:39;;;;;;;8.57;4.35;;;26.20;73.10;;;;;;4960318;28;20057;-93
2022/08/15 10:15:33;;;;;;;;;;;;;;;;;;;;;
2022/08/15 10:18:21;;;;;;;;;;;;;;;;;;;;;
2022/08/15 10:21:06;;;;;;;;;;;;;;;;;;;;;
2022/08/15 10:24:22;;;;;;;6.70;4.90;;;26.20;74.30;;;;;;4979736;28;20047;-91
2022/08/15 10:27:19;;;;;;;;;;;;;;;;;;;;;
2022/08/15 10:30:46;;;;;;;6.80;4.85;;;26.20;74.80;;;;;;4978811;28;20045;-89
2022/08/15 10:33:59;;;;;;;6.90;5.22;;;26.20;75.20;;;;;;4939695;28;20030;-88
2022/08/15 10:36:30;;;;;;;9.38;5.18;;;26.20;74.90;;;;;;4865536;29;20036;-89
2022/08/15 10:39:41;;;;;;;5.97;5.15;;;26.20;75.30;;;;;;4933205;29;20494;-87
2022/08/15 10:42:19;;;;;;;;;;;26.20;75.40;;;;;;4955567;29;20160;-90
2022/08/15 10:45:23;;;;;;;7.32;5.38;;;26.20;75.20;;;;;;4954074;28;19952;-91
2022/08/15 10:47:58;;;;;;;7.45;5.43;;;26.20;75.80;;;;;;4977972;28;20019;-91
2022/08/15 10:51:01;;;;;;;6.45;5.25;;;26.20;76.50;;;;;;4979052;28;20161;-89
2022/08/15 10:53:47;;;;;;;6.70;5.40;;;26.20;76.30;;;;;;4962475;28;20035;-89
2022/08/15 10:56:42;;;;;;;5.53;5.00;;;26.30;76.20;;;;;;4978779;28;20096;-90
2022/08/15 10:59:35;;;;;;;;;;;;;;;;;;;;;
2022/08/15 11:02:59;;;;;;;6.07;4.85;;;26.40;75.50;;;;;;4995856;28;20030;-90
2022/08/15 11:06:19;;;;;;;7.47;5.45;;;26.60;75.20;;;;;;4957531;29;20031;-91
2022/08/15 11:08:53;;;;;;;7.80;5.25;;;26.60;75.20;;;;;;4845836;29;20045;-91
2022/08/15 11:11:52;;;;;;;6.32;5.13;;;26.60;74.80;;;;;;4892348;29;20035;-90
2022/08/15 11:14:39;;;;;;;9.57;5.72;;;26.70;75.00;;;;;;4943010;29;20420;-92
2022/08/15 11:17:28;;;;;;;;;;;;;;;;;;;;;
2022/08/15 11:20:33;;;;;;;6.75;5.78;;;26.70;75.00;;;;;;4995807;28;20034;-92
2022/08/15 11:23:05;;;;;;;8.07;5.00;;;26.80;74.70;;;;;;4958975;28;20415;-90
2022/08/15 11:25:54;;;;;;;5.57;5.00;;;26.80;74.70;;;;;;4978409;28;20031;-91
2022/08/15 11:28:42;;;;;;;;;;;;;;;;;;;;;
2022/08/15 11:32:02;;;;;;;7.20;5.57;;;26.90;74.90;;;;;;4996354;28;20026;-90
2022/08/15 11:34:54;;;;;;;;;;;;;;;;;;;;;
2022/08/15 11:37:56;;;;;;;5.63;5.03;;;27.00;74.50;;;;;;4999878;28;20114;-89
2022/08/15 11:40:57;;;;;;;10.07;5.88;;;27.00;74.20;;;;;;4969017;28;20423;-91
2022/08/15 11:43:46;;;;;;;6.95;5.70;;;27.00;74.00;;;;;;4982649;28;20027;-91
2022/08/15 11:46:50;;;;;;;7.28;5.68;;;27.00;74.50;;;;;;4950984;28;20050;-90
2022/08/15 11:49:43;;;;;;;7.00;5.28;;;27.00;75.00;;;;;;4959816;29;20117;-90
2022/08/15 11:52:38;;;;;;;7.00;5.50;;;26.90;74.70;;;;;;4961631;29;20070;-89
2022/08/15 11:55:32;;;;;;;7.32;5.43;;;26.80;74.80;;;;;;4963618;29;20368;-89
2022/08/15 11:58:44;;;;;;;5.80;4.97;;;26.80;75.10;;;;;;4976441;28;20037;-89
2022/08/15 12:01:37;;;;;;;6.43;5.68;;;26.90;75.00;;;;;;4927582;29;20050;-90
2022/08/15 12:04:31;;;;;;;8.35;5.78;;;26.90;75.40;;;;;;4928257;29;20048;-91
2022/08/15 12:07:31;;;;;;;6.35;5.28;;;27.00;74.70;;;;;;4941706;29;20040;-90
2022/08/15 12:10:06;;;;;;;7.32;5.22;;;27.00;74.50;;;;;;5003191;28;20037;-90
2022/08/15 12:12:49;;;;;;;6.25;5.63;;;27.10;74.00;;;;;;4976308;28;20053;-90
2022/08/15 12:15:55;;;;;;;;;;;;;;;;;;;;;
2022/08/15 12:18:28;;;;;;;7.03;5.18;;;27.10;74.20;;;;;;4991346;28;20040;-90
2022/08/15 12:27:43;;;;;;;7.50;5.50;;;27.30;75.00;;;;;;4938979;28;20030;-89
2022/08/15 12:30:21;;;;;;;8.50;5.53;;;27.30;75.10;;;;;;4978194;28;20161;-90
2022/08/15 12:32:54;;;;;;;8.00;5.40;;;27.20;74.60;;;;;;4966325;28;20041;-90
2022/08/15 12:35:53;;;;;;;6.70;4.95;;;27.30;74.70;;;;;;4978394;28;20026;-90
2022/08/15 12:38:37;;;;;;;5.53;4.75;;;27.30;74.30;;;;;;4981777;28;20023;-88
2022/08/15 12:41:10;;;;;;;8.15;4.88;;;27.40;74.70;;;;;;4957990;28;20138;-89
2022/08/15 12:43:56;;;;;;;6.95;5.57;;;27.40;74.60;;;;;;4959835;28;20046;-93
2022/08/15 12:47:10;;;;;;;;;;;;;;;;;;;;;
2022/08/15 12:50:06;;;;;;;6.80;4.93;;;27.40;74.10;;;;;;4991787;28;20041;-89
2022/08/15 12:53:12;;;;;;;6.25;5.07;;;27.50;73.90;;;;;;4962393;28;20039;-92
2022/08/15 12:56:08;;;;;;;;;;;;;;;;;;;;;
2022/08/15 12:58:53;;;;;;;;;;;;;;;;;;;;;
2022/08/15 13:01:37;;;;;;;6.78;4.88;;;27.40;74.00;;;;;;4985660;28;20035;-87
2022/08/15 13:04:29;;;;;;;6.38;4.75;;;27.50;73.90;;;;;;4976728;28;20063;-88
2022/08/15 13:07:45;;;;;;;5.32;4.78;;;27.60;74.30;;;;;;4980246;28;20027;-89
2022/08/15 13:10:22;;;;;;;7.32;5.13;;;27.60;74.30;;;;;;4971490;28;20086;-89
2022/08/15 13:13:47;;;;;;;5.15;4.25;;;27.50;74.10;;;;;;4980171;28;20066;-89
2022/08/15 13:16:26;;;;;;;;;;;;;;;;;;;;;
2022/08/15 13:19:02;;;;;;;;;;;;;;;;;;;;;
2022/08/15 13:24:27;;;;;;;;;;;;;;;;;;;;;
2022/08/15 13:27:32;;;;;;;6.00;4.43;;;27.60;74.80;;;;;;4980721;28;20029;-91
2022/08/15 13:30:42;;;;;;;;;;;;;;;;;;;;;
2022/08/15 13:33:25;;;;;;;7.40;4.63;;;27.60;73.50;;;;;;4965750;28;20106;-89
2022/08/15 13:35:57;;;;;;;6.00;4.32;;;27.70;72.80;;;;;;4965459;28;20397;-89
2022/08/15 13:38:46;;;;;;;;;;;;;;;;;;;;;
2022/08/15 13:41:54;;;;;;;;;;;;;;;;;;;;;
2022/08/15 13:44:34;;;;;;;5.80;4.40;;;27.80;73.00;;;;;;4998347;28;20026;-91
2022/08/15 13:50:45;;;;;;;;;;;;;;;;;;;;;
2022/08/15 13:53:27;;;;;;;5.47;4.22;;;27.80;73.40;;;;;;4959470;28;20007;-89
2022/08/15 13:56:39;;;;;;;4.57;4.18;;;27.90;72.70;;;;;;4924438;29;20073;-90
2022/08/15 13:59:16;;;;;;;4.80;4.03;;;27.80;73.40;;;;;;4957923;28;20453;-89
2022/08/15 14:02:01;;;;;;;4.60;3.83;;;27.80;72.40;;;;;;4967196;28;20169;-90
2022/08/15 14:08:01;;;;;;;5.15;3.90;;;27.90;72.30;;;;;;4983091;28;20027;-91
2022/08/15 14:10:37;;;;;;;5.90;3.95;;;27.90;72.40;;;;;;4980777;28;20014;-89
2022/08/15 14:13:16;;;;;;;;;;;;;;;;;;;;;
2022/08/15 14:15:45;;;;;;;4.38;3.67;;;28.00;72.60;;;;;;4982403;28;20125;-87
2022/08/15 14:18:35;;;;;;;;;;;;;;;;;;;;;
2022/08/15 14:24:49;;;;;;;5.25;3.88;;;28.00;71.50;;;;;;4986723;28;20111;-89
2022/08/15 14:27:31;;;;;;;5.45;3.45;;;28.10;71.30;;;;;;4980809;28;20031;-91
2022/08/15 14:30:00;;;;;;;4.95;3.75;;;28.10;71.40;;;;;;4978469;28;20023;-90
2022/08/15 14:32:46;;;;;;;6.57;3.58;;;28.10;71.40;;;;;;4945332;28;20042;-90
2022/08/15 14:35:30;;;;;;;;;;;;;;;;;;;;;
2022/08/15 14:38:20;;;;;;;5.47;3.67;;;28.10;71.40;;;;;;4979810;28;20028;-90
2022/08/15 14:43:42;;;;;;;5.38;3.42;;;28.10;70.70;;;;;;4979705;28;20037;-89
2022/08/15 14:46:48;;;;;;;6.05;3.50;;;28.10;70.40;;;;;;4978114;28;20482;-89
2022/08/15 14:49:15;;;;;;;4.10;3.40;;;28.10;70.60;;;;;;4995258;28;20030;-88
2022/08/15 14:51:49;;;;;;;3.75;3.33;;;28.10;70.60;;;;;;4977894;28;20026;-90
2022/08/15 14:54:53;;;;;;;6.55;4.22;;;28.10;70.70;;;;;;4974628;28;20034;-89
2022/08/15 14:58:19;;;;;;;4.55;3.70;;;28.20;71.20;;;;;;4980851;28;20053;-88
2022/08/15 15:00:55;;;;;;;5.07;3.80;;;28.10;71.00;;;;;;4968354;28;20030;-90
2022/08/15 15:03:30;;;;;;;6.43;3.80;;;28.10;70.80;;;;;;4977406;28;20026;-91
2022/08/15 15:06:32;;;;;;;4.25;3.80;;;28.10;70.40;;;;;;4978247;28;20025;-89
2022/08/15 15:09:20;;;;;;;4.43;3.65;;;28.10;70.90;;;;;;4977989;28;20090;-89
2022/08/15 15:11:47;;;;;;;4.65;3.33;;;28.10;70.80;;;;;;4978257;28;20022;-91
2022/08/15 15:18:00;;;;;;;4.63;4.03;;;28.00;70.70;;;;;;4985758;28;20093;-89
2022/08/15 15:20:44;;;;;;;5.15;3.40;;;28.00;70.20;;;;;;4960853;28;20047;-93
2022/08/15 15:23:14;;;;;;;7.45;4.32;;;28.00;70.70;;;;;;4957040;28;20039;-87
2022/08/15 15:25:42;;;;;;;7.35;3.80;;;28.00;71.20;;;;;;4974801;28;20039;-88
2022/08/15 15:28:15;;;;;;;6.00;3.80;;;27.90;71.60;;;;;;4957651;28;20023;-88
2022/08/15 15:30:41;;;;;;;4.22;3.83;;;27.90;71.40;;;;;;4990447;28;20525;-88
2022/08/15 15:33:07;;;;;;;5.55;3.88;;;27.90;70.80;;;;;;4976736;28;20101;-88
2022/08/15 15:35:32;;;;;;;5.20;3.85;;;27.90;70.60;;;;;;4994114;28;20034;-87
2022/08/15 15:37:58;;;;;;;4.90;3.85;;;27.90;70.80;;;;;;4976729;28;20010;-88
2022/08/15 15:40:29;;;;;;;4.20;3.80;;;28.00;71.30;;;;;;4958981;28;20019;-88
2022/08/15 15:42:54;;;;;;;;;;;28.00;71.60;;;;;;4977491;28;20062;-87
2022/08/15 15:45:24;;;;;;;4.90;3.85;;;28.00;71.80;;;;;;4977135;28;19956;-89
2022/08/15 15:47:54;;;;;;;4.15;3.67;;;28.00;71.50;;;;;;4977539;28;20049;-93
2022/08/15 15:50:25;;;;;;;4.45;3.85;;;27.90;71.50;;;;;;4961974;28;20113;-90
2022/08/15 15:52:54;;;;;;;4.47;3.72;;;27.90;71.70;;;;;;4965934;28;20058;-89
2022/08/15 15:55:20;;;;;;;4.72;3.75;;;27.90;71.80;;;;;;4959156;28;20034;-87
2022/08/15 15:57:45;;;;;;;6.10;3.80;;;28.00;71.80;;;;;;4958682;28;20019;-81
2022/08/15 16:00:17;;;;;;;5.03;3.90;;;28.00;71.90;;;;;;4976345;28;20027;-88
2022/08/15 16:02:54;;;;;;;5.18;3.50;;;28.00;71.50;;;;;;4959127;28;20050;-90
2022/08/15 16:05:30;;;;;;;4.97;3.95;;;28.00;71.10;;;;;;4958577;28;20027;-87
2022/08/15 16:07:59;;;;;;;5.72;3.65;;;28.10;71.00;;;;;;4975026;28;20015;-85
2022/08/15 16:10:47;;;;;;;7.40;4.00;;;28.10;71.00;;;;;;4942781;28;20054;-88
2022/08/15 16:13:55;;;;;;;4.75;3.67;;;28.10;71.30;;;;;;4975611;28;20070;-88
2022/08/15 16:16:48;;;;;;;3.97;3.50;;;28.10;71.10;;;;;;4949456;28;20086;-89
2022/08/15 16:19:35;;;;;;;6.65;3.95;;;28.00;70.80;;;;;;4937914;28;20038;-88
2022/08/15 16:22:13;;;;;;;5.50;3.40;;;28.00;70.60;;;;;;4963554;28;20172;-87
2022/08/15 16:25:05;;;;;;;4.43;3.28;;;28.10;70.70;;;;;;4962488;28;20023;-89
2022/08/15 16:27:48;;;;;;;4.35;3.58;;;28.10;70.60;;;;;;4979799;28;20027;-90
2022/08/15 16:30:28;;;;;;;5.13;3.58;;;28.10;70.60;;;;;;4979059;28;20023;-88
2022/08/15 16:33:09;;;;;;;4.38;3.10;;;28.10;70.80;;;;;;4980307;28;20022;-90
2022/08/15 16:39:35;;;;;;;6.50;3.78;;;28.10;70.50;;;;;;4999528;28;20102;-88
2022/08/15 16:42:21;;;;;;;4.65;3.78;;;28.10;70.30;;;;;;4984399;28;20062;-86
2022/08/15 16:44:52;;;;;;;5.05;3.35;;;28.10;70.60;;;;;;5001673;28;20038;-89
2022/08/15 16:47:41;;;;;;;7.63;3.83;;;28.10;70.60;;;;;;4996332;28;20468;-87
2022/08/15 16:50:47;;;;;;;5.53;3.58;;;28.10;69.80;;;;;;4992642;28;20050;-87
2022/08/15 16:53:37;;;;;;;6.50;3.58;;;28.10;70.30;;;;;;4966376;28;20034;-88
2022/08/15 16:56:16;;;;;;;6.00;3.83;;;28.10;70.30;;;;;;4979393;28;20081;-87
2022/08/15 16:58:48;;;;;;;6.28;3.80;;;28.10;70.70;;;;;;4961211;28;20337;-90
2022/08/15 17:01:43;;;;;;;6.10;3.80;;;28.10;71.00;;;;;;4966667;28;20065;-86
2022/08/15 17:04:37;;;;;;;4.47;3.40;;;28.10;71.00;;;;;;4997079;28;20097;-90
2022/08/15 17:07:45;;;;;;;4.43;3.58;;;28.10;70.60;;;;;;4980245;28;20451;-83
2022/08/15 17:10:43;;;;;;;3.97;3.22;;;28.10;70.40;;;;;;4993769;28;20019;-90
2022/08/15 17:13:37;;;;;;;4.97;3.92;;;28.10;70.40;;;;;;4962031;28;20027;-90
2022/08/15 17:16:15;;;;;;;5.88;3.30;;;28.10;70.50;;;;;;4969501;28;20065;-88
2022/08/15 17:19:04;;;;;;;5.40;3.30;;;28.10;70.60;;;;;;4999326;28;20026;-91
2022/08/15 17:21:50;;;;;;;4.00;3.20;;;28.10;71.40;;;;;;4998504;28;20088;-89